Billinge, United Kingdom
Current Conditions -  °F | °C
As of 12:50 AM on Thursday 18 Dec 2014 (Local Time) from EGGP Reporting Station
Scattered Clouds Scattered Clouds  
Wind Chill: 12°   Ceiling: Unl
Heat Index: 12°   Visibility: 6mi
Dew Point: 10°   Wind: 8mph
Humidity: 88%   Direction: 230°SW
Pressure: 29.65"   Gusts: NA
Location:  53.5°N, 2.71°W
Report Text: EGGP 180050Z 23007KT 9999 FEW030 SCT035 12/10 Q1004
Loading
Personal Weather Stations






























Interactive Weather Map New forecast layout! Learn more

10-Day Weather Forecast

Advertisements
Track Severe Weather on mobile